createdAt,value
2018-03-26T00:00:22.450Z,3.00
2018-03-26T00:02:50.742Z,3.10
2018-03-26T00:05:18.254Z,3.10
2018-03-26T00:07:45.777Z,3.10
2018-03-26T00:10:13.279Z,3.20
2018-03-26T00:12:40.802Z,3.20
2018-03-26T00:15:08.306Z,3.10
2018-03-26T00:17:36.606Z,3.10
2018-03-26T00:20:04.114Z,3.10
2018-03-26T00:22:31.638Z,3.10
2018-03-26T00:24:59.153Z,3.00
2018-03-26T00:27:26.686Z,3.00
2018-03-26T00:29:54.191Z,3.00
2018-03-26T00:32:21.714Z,3.00
2018-03-26T00:34:49.274Z,3.00
2018-03-26T00:37:16.763Z,3.00
2018-03-26T00:39:45.034Z,3.00
2018-03-26T00:42:13.328Z,2.90
2018-03-26T00:44:40.836Z,2.90
2018-03-26T00:47:08.363Z,2.90
2018-03-26T00:49:35.886Z,3.00
2018-03-26T00:52:04.176Z,2.90
2018-03-26T00:54:31.684Z,2.90
2018-03-26T00:56:59.240Z,3.00
2018-03-26T00:59:26.718Z,3.10
2018-03-26T01:01:54.243Z,3.00
2018-03-26T01:04:21.754Z,2.90
2018-03-26T01:06:50.046Z,2.90
2018-03-26T01:09:17.545Z,2.90
2018-03-26T01:11:45.835Z,2.90
2018-03-26T01:14:13.342Z,2.90
2018-03-26T01:16:40.862Z,2.90
2018-03-26T01:19:08.363Z,3.00
2018-03-26T01:21:35.891Z,3.00
2018-03-26T01:24:04.158Z,3.00
2018-03-26T01:26:32.447Z,2.90
2018-03-26T01:29:00.719Z,3.00
2018-03-26T01:31:29.011Z,3.00
2018-03-26T01:33:56.523Z,2.90
2018-03-26T01:36:24.038Z,2.90
2018-03-26T01:38:51.548Z,2.90
2018-03-26T01:41:19.078Z,2.80
2018-03-26T01:43:46.583Z,2.70
2018-03-26T01:46:14.847Z,2.50
2018-03-26T01:48:42.370Z,2.50
2018-03-26T01:51:09.879Z,2.50
2018-03-26T01:53:38.175Z,2.30
2018-03-26T01:56:05.678Z,2.40
2018-03-26T01:58:33.204Z,2.30
2018-03-26T02:01:00.717Z,2.20
2018-03-26T02:03:29.011Z,1.90
2018-03-26T02:05:57.283Z,1.90
2018-03-26T02:08:25.575Z,1.80
2018-03-26T02:10:53.079Z,1.80
2018-03-26T02:13:20.598Z,1.90
2018-03-26T02:15:48.106Z,1.80
2018-03-26T02:18:15.636Z,1.70
2018-03-26T02:20:43.146Z,1.80
2018-03-26T02:23:11.435Z,1.80
2018-03-26T02:25:38.972Z,1.80
2018-03-26T02:28:06.499Z,1.90
2018-03-26T02:30:34.011Z,1.90
2018-03-26T02:33:01.567Z,2.00
2018-03-26T02:35:29.836Z,2.00
2018-03-26T02:37:58.127Z,2.00
2018-03-26T02:40:25.640Z,2.00
2018-03-26T02:42:53.937Z,2.00
2018-03-26T02:45:22.212Z,2.00
2018-03-26T02:47:50.508Z,2.00
2018-03-26T02:50:18.019Z,2.00
2018-03-26T02:52:45.549Z,2.00
2018-03-26T02:55:13.067Z,2.00
2018-03-26T02:57:41.354Z,1.90
2018-03-26T03:00:08.867Z,1.90
2018-03-26T03:02:36.397Z,2.00
2018-03-26T03:05:03.915Z,2.00
2018-03-26T03:07:32.207Z,2.00
2018-03-26T03:09:59.715Z,2.00
2018-03-26T03:12:27.239Z,2.00
2018-03-26T03:14:54.755Z,1.90
2018-03-26T03:17:22.283Z,1.90
2018-03-26T03:19:49.786Z,2.00
2018-03-26T03:22:18.083Z,2.00
2018-03-26T03:24:45.598Z,2.00
2018-03-26T03:27:13.119Z,2.00
2018-03-26T03:29:40.631Z,2.10
2018-03-26T03:32:08.977Z,2.10
2018-03-26T03:34:36.446Z,2.10
2018-03-26T03:37:03.967Z,2.10
2018-03-26T03:39:31.474Z,2.10
2018-03-26T03:41:59.023Z,2.10
2018-03-26T03:44:26.535Z,2.10
2018-03-26T03:46:54.054Z,2.10
2018-03-26T03:49:21.584Z,2.10
2018-03-26T03:51:49.102Z,2.10
2018-03-26T03:54:16.631Z,2.10
2018-03-26T03:56:44.906Z,2.20
2018-03-26T03:59:12.438Z,2.10
2018-03-26T04:01:39.936Z,2.10
2018-03-26T04:04:08.228Z,2.10
2018-03-26T04:06:35.751Z,2.10
2018-03-26T04:09:03.270Z,2.10
2018-03-26T04:11:30.767Z,2.10
2018-03-26T04:13:58.286Z,2.10
2018-03-26T04:16:25.791Z,2.10
2018-03-26T04:18:54.082Z,2.10
2018-03-26T04:21:22.354Z,2.10
2018-03-26T04:23:50.647Z,2.10
2018-03-26T04:26:18.153Z,2.00
2018-03-26T04:28:45.674Z,2.00
2018-03-26T04:31:13.183Z,2.00
2018-03-26T04:33:40.711Z,2.00
2018-03-26T04:36:08.979Z,2.00
2018-03-26T04:38:36.511Z,2.00
2018-03-26T04:41:04.028Z,2.00
2018-03-26T04:43:31.546Z,2.00
2018-03-26T04:45:59.055Z,1.90
2018-03-26T04:48:26.578Z,1.90
2018-03-26T04:50:54.079Z,1.80
2018-03-26T04:53:22.374Z,1.60
2018-03-26T04:55:49.934Z,1.60
2018-03-26T04:58:17.419Z,1.60
2018-03-26T05:00:44.930Z,1.60
2018-03-26T05:03:13.213Z,1.50
2018-03-26T05:05:41.480Z,1.50
2018-03-26T05:08:09.763Z,1.40
2018-03-26T05:10:38.030Z,1.40
2018-03-26T05:13:05.551Z,1.40
2018-03-26T05:15:33.063Z,1.40
2018-03-26T05:18:01.355Z,1.30
2018-03-26T05:20:28.866Z,1.30
2018-03-26T05:22:56.394Z,1.30
2018-03-26T05:25:23.902Z,1.30
2018-03-26T05:27:52.198Z,1.30
2018-03-26T05:30:19.703Z,1.30
2018-03-26T05:32:47.231Z,1.40
2018-03-26T05:35:14.732Z,1.40
2018-03-26T05:37:42.258Z,1.50
2018-03-26T05:40:09.766Z,1.60
2018-03-26T05:42:38.062Z,1.70
2018-03-26T05:45:05.583Z,1.70
2018-03-26T05:47:33.890Z,1.90
2018-03-26T05:50:02.150Z,1.90
2018-03-26T05:52:30.423Z,2.00
2018-03-26T05:54:58.710Z,2.10
2018-03-26T05:57:26.991Z,2.10
2018-03-26T05:59:55.358Z,2.10
2018-03-26T06:02:23.624Z,2.20
2018-03-26T06:04:51.487Z,2.20
2018-03-26T06:07:18.998Z,2.30
2018-03-26T06:09:46.512Z,2.40
2018-03-26T06:12:14.786Z,2.50
2018-03-26T06:14:42.307Z,2.50
2018-03-26T06:17:10.739Z,2.50
2018-03-26T06:19:39.398Z,2.60
2018-03-26T06:22:06.907Z,2.60
2018-03-26T06:24:34.441Z,2.70
2018-03-26T06:27:02.706Z,2.90
2018-03-26T06:29:30.994Z,3.00
2018-03-26T06:31:59.273Z,3.10
2018-03-26T06:34:27.559Z,3.20
2018-03-26T06:39:52.739Z,3.30
2018-03-26T06:42:20.243Z,3.30
2018-03-26T06:44:47.770Z,3.30
2018-03-26T06:47:16.038Z,3.50
2018-03-26T06:49:43.562Z,3.50
2018-03-26T06:52:11.067Z,3.70
2018-03-26T06:54:38.602Z,4.00
2018-03-26T06:57:06.097Z,4.10
2018-03-26T06:59:34.378Z,4.30
2018-03-26T07:02:01.879Z,4.30
2018-03-26T07:04:29.413Z,4.30
2018-03-26T07:06:56.918Z,4.20
2018-03-26T07:09:24.445Z,4.20
2018-03-26T07:11:51.946Z,4.20
2018-03-26T07:14:20.234Z,4.10
2018-03-26T07:16:48.507Z,4.10
2018-03-26T07:19:16.799Z,4.20
2018-03-26T07:21:44.313Z,4.10
2018-03-26T07:24:11.850Z,4.30
2018-03-26T07:26:39.350Z,4.30
2018-03-26T07:29:07.643Z,4.50
2018-03-26T07:31:35.915Z,4.60
2018-03-26T07:34:04.268Z,4.80
2018-03-26T07:36:31.735Z,4.80
2018-03-26T07:38:59.246Z,5.00
2018-03-26T07:41:26.758Z,5.30
2018-03-26T07:43:55.047Z,5.60
2018-03-26T07:46:23.315Z,5.70
2018-03-26T07:48:51.598Z,5.80
2018-03-26T07:51:19.870Z,5.60
2018-03-26T07:53:48.158Z,5.50
2018-03-26T07:56:15.666Z,5.50
2018-03-26T07:58:43.191Z,5.60
2018-03-26T08:01:10.690Z,5.50
2018-03-26T08:03:38.203Z,5.80
2018-03-26T08:06:05.704Z,5.80
2018-03-26T08:08:33.219Z,5.80
2018-03-26T08:11:00.719Z,5.70
2018-03-26T08:13:28.263Z,5.50
2018-03-26T08:15:55.767Z,5.40
2018-03-26T08:18:24.043Z,5.70
2018-03-26T08:20:52.325Z,5.60
2018-03-26T08:23:20.594Z,5.50
2018-03-26T08:25:48.878Z,5.60
2018-03-26T08:28:16.711Z,5.50
2018-03-26T08:30:44.260Z,5.80
2018-03-26T08:33:11.749Z,5.80
2018-03-26T08:35:40.050Z,5.80
2018-03-26T08:38:07.559Z,5.80
2018-03-26T08:40:35.085Z,5.90
2018-03-26T08:43:02.590Z,6.00
2018-03-26T08:45:30.879Z,6.10
2018-03-26T08:47:59.147Z,6.30
2018-03-26T08:50:27.493Z,6.60
2018-03-26T08:52:54.963Z,6.60
2018-03-26T08:55:22.483Z,6.60
2018-03-26T08:57:49.990Z,6.70
2018-03-26T09:00:17.515Z,6.90
2018-03-26T09:02:45.019Z,6.80
2018-03-26T09:05:13.298Z,6.90
2018-03-26T09:07:41.562Z,7.20
2018-03-26T09:10:09.843Z,7.30
2018-03-26T09:12:38.114Z,7.10
2018-03-26T09:15:06.442Z,7.00
2018-03-26T09:17:33.993Z,7.00
2018-03-26T09:20:02.247Z,7.20
2018-03-26T09:22:29.747Z,7.20
2018-03-26T09:24:57.279Z,7.00
2018-03-26T09:27:24.778Z,6.90
2018-03-26T09:29:52.298Z,6.80
2018-03-26T09:32:19.800Z,6.80
2018-03-26T09:34:47.340Z,6.70
2018-03-26T09:37:14.843Z,6.70
2018-03-26T09:39:43.139Z,6.70
2018-03-26T09:42:10.639Z,6.70
2018-03-26T09:44:38.155Z,7.00
2018-03-26T09:47:05.663Z,7.20
2018-03-26T09:49:33.191Z,7.40
2018-03-26T09:52:00.690Z,7.70
2018-03-26T09:54:28.205Z,7.70
2018-03-26T09:56:55.702Z,7.50
2018-03-26T09:59:23.250Z,7.40
2018-03-26T10:01:56.547Z,7.40
2018-03-26T10:04:24.071Z,7.40
2018-03-26T10:06:51.571Z,7.90
2018-03-26T10:09:19.119Z,8.30
2018-03-26T10:11:46.623Z,8.40
2018-03-26T10:14:14.132Z,8.20
2018-03-26T10:16:41.962Z,8.20
2018-03-26T10:19:09.475Z,8.20
2018-03-26T10:21:36.994Z,8.30
2018-03-26T10:24:04.494Z,8.70
2018-03-26T10:26:32.350Z,8.80
2018-03-26T10:28:59.860Z,8.60
2018-03-26T10:31:27.378Z,8.80
2018-03-26T10:33:55.641Z,8.70
2018-03-26T10:36:23.157Z,8.80
2018-03-26T10:38:50.662Z,8.70
2018-03-26T10:41:18.179Z,8.90
2018-03-26T10:43:45.687Z,9.30
2018-03-26T10:46:13.966Z,9.80
2018-03-26T10:48:42.230Z,9.60
2018-03-26T10:51:09.787Z,9.50
2018-03-26T10:53:37.262Z,9.60
2018-03-26T10:56:05.556Z,9.80
2018-03-26T10:58:33.070Z,9.80
2018-03-26T11:01:00.600Z,10.00
2018-03-26T11:03:28.105Z,10.10
2018-03-26T11:05:56.399Z,9.20
2018-03-26T11:08:23.908Z,9.30
2018-03-26T11:10:51.422Z,9.40
2018-03-26T11:13:18.927Z,9.50
2018-03-26T11:15:47.224Z,9.50
2018-03-26T11:18:14.727Z,9.40
2018-03-26T11:20:42.243Z,9.50
2018-03-26T11:23:09.792Z,9.70
2018-03-26T11:25:37.317Z,9.80
2018-03-26T11:28:04.841Z,9.70
2018-03-26T11:30:32.362Z,9.70
2018-03-26T11:32:59.859Z,9.70
2018-03-26T11:35:27.374Z,9.80
2018-03-26T11:37:54.879Z,9.90
2018-03-26T11:40:22.398Z,9.80
2018-03-26T11:42:49.902Z,9.20
2018-03-26T11:45:17.422Z,9.10
2018-03-26T11:47:44.921Z,8.80
2018-03-26T11:50:12.444Z,8.60
2018-03-26T11:52:40.714Z,9.00
2018-03-26T11:55:09.011Z,8.90
2018-03-26T11:57:37.278Z,8.80
2018-03-26T12:00:05.570Z,9.00
2018-03-26T12:02:33.888Z,9.00
2018-03-26T12:05:02.172Z,8.90
2018-03-26T12:07:29.684Z,8.90
2018-03-26T12:09:57.199Z,9.00
2018-03-26T12:12:24.719Z,8.80
2018-03-26T12:14:52.218Z,8.70
2018-03-26T12:17:19.744Z,8.70
2018-03-26T12:19:59.114Z,8.50
2018-03-26T12:22:26.639Z,8.50
2018-03-26T12:25:09.827Z,8.50
2018-03-26T12:27:49.738Z,8.50
2018-03-26T12:30:24.896Z,8.50
2018-03-26T12:32:53.175Z,8.40
2018-03-26T12:35:33.397Z,8.10
2018-03-26T12:38:00.900Z,8.10
2018-03-26T12:40:40.127Z,7.80
2018-03-26T12:43:08.399Z,7.50
2018-03-26T12:45:48.847Z,7.40
2018-03-26T12:48:16.355Z,7.40
2018-03-26T12:50:55.791Z,7.40
2018-03-26T12:53:23.301Z,7.40
2018-03-26T12:55:50.850Z,7.70
2018-03-26T12:58:30.147Z,8.00
2018-03-26T13:01:09.402Z,8.20
2018-03-26T13:03:36.902Z,8.20
2018-03-26T13:06:05.191Z,8.20
2018-03-26T13:08:33.455Z,8.10
2018-03-26T13:11:01.714Z,8.10
2018-03-26T13:13:29.236Z,8.10
2018-03-26T13:15:56.807Z,8.00
2018-03-26T13:18:24.341Z,8.00
2018-03-26T13:20:51.847Z,8.00
2018-03-26T13:23:19.370Z,7.90
2018-03-26T13:25:46.875Z,7.80
2018-03-26T13:28:15.223Z,7.40
2018-03-26T13:30:42.683Z,7.40
2018-03-26T13:33:10.262Z,7.30
2018-03-26T13:35:38.555Z,7.20
2018-03-26T13:38:06.842Z,7.10
2018-03-26T13:40:34.343Z,7.10
2018-03-26T13:43:01.871Z,7.00
2018-03-26T13:45:29.378Z,6.90
2018-03-26T13:47:56.912Z,6.80
2018-03-26T13:50:25.178Z,6.60
2018-03-26T13:52:52.691Z,6.60
2018-03-26T13:55:20.966Z,6.50
2018-03-26T13:57:49.235Z,6.50
2018-03-26T14:00:17.526Z,6.50
2018-03-26T14:02:45.794Z,6.50
2018-03-26T14:05:14.357Z,6.50
2018-03-26T14:07:41.858Z,6.40
2018-03-26T14:10:21.259Z,6.40
2018-03-26T14:13:00.766Z,6.40
2018-03-26T14:15:40.119Z,6.40
2018-03-26T14:18:07.619Z,6.40
2018-03-26T14:20:35.140Z,6.30
2018-03-26T14:23:02.964Z,6.30
2018-03-26T14:25:30.487Z,6.30
2018-03-26T14:27:58.754Z,6.30
2018-03-26T14:30:26.275Z,6.30
2018-03-26T14:32:53.786Z,6.30
2018-03-26T14:38:21.710Z,6.30
2018-03-26T14:40:49.235Z,6.30
2018-03-26T14:43:17.498Z,6.30
2018-03-26T14:45:45.783Z,6.30
2018-03-26T14:48:14.051Z,6.20
2018-03-26T14:50:42.317Z,6.20
2018-03-26T14:53:09.843Z,6.20
2018-03-26T14:55:37.342Z,6.30
2018-03-26T14:58:05.626Z,6.30
2018-03-26T15:00:33.896Z,6.30
2018-03-26T15:03:02.177Z,6.30
2018-03-26T15:05:29.692Z,6.30
2018-03-26T15:07:57.212Z,6.30
2018-03-26T15:10:24.718Z,6.30
2018-03-26T15:12:52.240Z,6.40
2018-03-26T15:15:19.752Z,6.50
2018-03-26T15:17:47.265Z,6.40
2018-03-26T15:20:14.770Z,6.40
2018-03-26T15:22:42.290Z,6.40
2018-03-26T15:25:10.174Z,6.50
2018-03-26T15:27:37.695Z,6.70
2018-03-26T15:30:05.214Z,6.90
2018-03-26T15:32:33.498Z,7.30
2018-03-26T15:35:01.766Z,7.10
2018-03-26T15:37:30.055Z,7.00
2018-03-26T15:39:58.331Z,7.00
2018-03-26T15:42:26.610Z,7.20
2018-03-26T15:44:55.168Z,7.10
2018-03-26T15:47:22.692Z,7.10
2018-03-26T15:49:50.187Z,7.10
2018-03-26T15:52:17.707Z,7.10
2018-03-26T15:54:45.503Z,7.00
2018-03-26T15:57:13.026Z,6.90
2018-03-26T15:59:40.539Z,6.80
2018-03-26T16:02:08.341Z,6.70
2018-03-26T16:04:35.844Z,6.70
2018-03-26T16:07:03.379Z,6.70
2018-03-26T16:09:30.877Z,6.80
2018-03-26T16:11:59.170Z,6.60
2018-03-26T16:14:26.666Z,6.60
2018-03-26T16:16:54.179Z,6.50
2018-03-26T16:19:22.451Z,6.40
2018-03-26T16:21:50.734Z,6.40
2018-03-26T16:24:19.002Z,6.40
2018-03-26T16:26:47.295Z,6.40
2018-03-26T16:29:14.802Z,6.40
2018-03-26T16:31:42.327Z,6.40
2018-03-26T16:34:09.833Z,6.40
2018-03-26T16:36:37.357Z,6.30
2018-03-26T16:39:04.871Z,6.30
2018-03-26T16:41:48.040Z,5.00
2018-03-26T16:44:15.542Z,5.00
2018-03-26T16:46:43.835Z,4.50
2018-03-26T16:49:11.342Z,4.50
2018-03-26T16:51:38.862Z,4.30
2018-03-26T16:54:06.382Z,4.20
2018-03-26T16:56:33.880Z,4.20
2018-03-26T16:59:01.398Z,4.20
2018-03-26T17:01:28.906Z,4.10
2018-03-26T17:03:56.427Z,4.10
2018-03-26T17:06:24.699Z,4.20
2018-03-26T17:08:52.239Z,4.20
2018-03-26T17:11:19.747Z,4.40
2018-03-26T17:13:47.271Z,4.20
2018-03-26T17:16:14.780Z,4.40
2018-03-26T17:18:42.298Z,4.30
2018-03-26T17:21:10.570Z,4.40
2018-03-26T17:23:38.848Z,4.40
2018-03-26T17:26:07.155Z,4.50
2018-03-26T17:28:34.675Z,4.50
2018-03-26T17:31:02.178Z,4.50
2018-03-26T17:33:29.703Z,4.60
2018-03-26T17:35:57.974Z,4.50
2018-03-26T17:38:26.258Z,4.30
2018-03-26T17:40:54.522Z,4.00
2018-03-26T17:43:22.806Z,4.00
2018-03-26T17:45:51.076Z,4.10
2018-03-26T17:48:19.380Z,4.00
2018-03-26T17:50:46.894Z,4.00
2018-03-26T17:53:14.411Z,4.00
2018-03-26T17:55:41.906Z,3.90
2018-03-26T17:58:09.415Z,3.80
2018-03-26T18:00:36.919Z,3.80
2018-03-26T18:03:04.442Z,3.70
2018-03-26T18:05:31.942Z,3.70
2018-03-26T18:07:59.463Z,3.60
2018-03-26T18:10:26.970Z,3.60
2018-03-26T18:12:55.258Z,3.60
2018-03-26T18:15:23.527Z,3.60
2018-03-26T18:17:51.823Z,3.60
2018-03-26T18:20:19.342Z,3.50
2018-03-26T18:22:46.859Z,3.70
2018-03-26T18:25:14.363Z,3.60
2018-03-26T18:27:41.882Z,3.50
2018-03-26T18:30:09.386Z,3.40
2018-03-26T18:32:36.897Z,3.30
2018-03-26T18:35:04.399Z,3.40
2018-03-26T18:37:31.970Z,3.30
2018-03-26T18:39:59.431Z,3.30
2018-03-26T18:42:27.719Z,3.30
2018-03-26T18:44:55.222Z,3.30
2018-03-26T18:47:22.714Z,3.30
2018-03-26T18:49:50.994Z,3.30
2018-03-26T18:52:19.259Z,3.30
2018-03-26T18:54:46.771Z,3.30
2018-03-26T18:57:14.270Z,3.30
2018-03-26T18:59:41.791Z,3.30
2018-03-26T19:02:09.294Z,3.30
2018-03-26T19:04:37.584Z,3.30
2018-03-26T19:07:05.866Z,3.20
2018-03-26T19:09:34.157Z,3.30
2018-03-26T19:12:01.665Z,3.20
2018-03-26T19:14:29.186Z,3.30
2018-03-26T19:16:56.691Z,3.30
2018-03-26T19:19:24.212Z,3.30
2018-03-26T19:21:51.711Z,3.40
2018-03-26T19:24:19.232Z,3.40
2018-03-26T19:26:46.735Z,3.30
2018-03-26T19:29:15.023Z,3.20
2018-03-26T19:31:43.291Z,3.30
2018-03-26T19:34:11.575Z,3.20
2018-03-26T19:36:39.090Z,3.20
2018-03-26T19:39:07.374Z,3.20
2018-03-26T19:41:34.879Z,3.20
2018-03-26T19:44:02.403Z,3.20
2018-03-26T19:46:29.914Z,3.30
2018-03-26T19:48:57.434Z,3.30
2018-03-26T19:51:25.711Z,3.20
2018-03-26T19:53:54.010Z,3.20
2018-03-26T19:56:21.514Z,3.20
2018-03-26T19:58:49.039Z,3.20
2018-03-26T20:01:16.543Z,3.10
2018-03-26T20:03:44.067Z,3.20
2018-03-26T20:06:11.575Z,3.10
2018-03-26T20:08:39.871Z,3.10
2018-03-26T20:11:07.375Z,3.10
2018-03-26T20:13:34.890Z,3.10
2018-03-26T20:16:02.399Z,3.20
2018-03-26T20:18:29.918Z,3.20
2018-03-26T20:20:57.427Z,3.10
2018-03-26T20:23:24.942Z,3.10
2018-03-26T20:25:52.446Z,3.10
2018-03-26T20:28:19.962Z,3.10
2018-03-26T20:30:47.463Z,3.10
2018-03-26T20:33:14.982Z,3.00
2018-03-26T20:35:42.486Z,3.10
2018-03-26T20:38:10.815Z,3.10
2018-03-26T20:40:38.298Z,3.00
2018-03-26T20:43:05.807Z,3.00
2018-03-26T20:45:33.333Z,3.00
2018-03-26T20:48:01.602Z,3.10
2018-03-26T20:50:29.126Z,3.00
2018-03-26T20:52:57.398Z,3.00
2018-03-26T20:55:24.920Z,3.00
2018-03-26T20:57:52.426Z,2.90
2018-03-26T21:00:19.946Z,3.00
2018-03-26T21:02:47.447Z,3.00
2018-03-26T21:05:14.967Z,2.90
2018-03-26T21:07:42.477Z,2.90
2018-03-26T21:10:10.003Z,2.90
2018-03-26T21:12:37.516Z,2.90
2018-03-26T21:15:05.876Z,2.90
2018-03-26T21:17:33.380Z,2.90
2018-03-26T21:20:00.902Z,2.90
2018-03-26T21:22:29.175Z,2.90
2018-03-26T21:24:57.464Z,2.90
2018-03-26T21:27:25.730Z,2.90
2018-03-26T21:29:54.014Z,2.90
2018-03-26T21:32:22.282Z,2.90
2018-03-26T21:34:50.575Z,2.90
2018-03-26T21:37:18.842Z,2.90
2018-03-26T21:39:47.144Z,2.90
2018-03-26T21:42:14.655Z,2.90
2018-03-26T21:44:42.179Z,3.00
2018-03-26T21:47:09.698Z,2.90
2018-03-26T21:49:37.983Z,2.90
2018-03-26T21:52:05.494Z,2.80
2018-03-26T21:54:33.024Z,2.90
2018-03-26T21:57:00.550Z,2.90
2018-03-26T21:59:28.841Z,2.80
2018-03-26T22:01:56.346Z,2.80
2018-03-26T22:04:23.872Z,2.80
2018-03-26T22:06:51.381Z,2.80
2018-03-26T22:09:18.906Z,2.90
2018-03-26T22:11:46.410Z,2.90
2018-03-26T22:14:14.702Z,2.80
2018-03-26T22:16:42.210Z,2.80
2018-03-26T22:19:09.731Z,2.80
2018-03-26T22:21:37.239Z,2.90
2018-03-26T22:24:04.763Z,2.90
2018-03-26T22:26:32.271Z,2.90
2018-03-26T22:29:00.566Z,2.90
2018-03-26T22:31:28.070Z,2.90
2018-03-26T22:33:55.598Z,2.80
2018-03-26T22:36:23.119Z,2.80
2018-03-26T22:38:51.406Z,2.80
2018-03-26T22:41:19.683Z,2.70
2018-03-26T22:43:47.966Z,2.70
2018-03-26T22:46:15.487Z,2.80
2018-03-26T22:48:43.003Z,2.80
2018-03-26T22:51:10.526Z,2.80
2018-03-26T22:53:38.800Z,2.80
2018-03-26T22:56:07.086Z,2.70
2018-03-26T22:58:35.429Z,2.80
2018-03-26T23:01:02.902Z,2.70
2018-03-26T23:03:30.410Z,2.70
2018-03-26T23:05:57.939Z,2.70
2018-03-26T23:08:26.215Z,2.70
2018-03-26T23:10:54.507Z,2.70
2018-03-26T23:13:22.010Z,2.70
2018-03-26T23:15:49.532Z,2.70
2018-03-26T23:18:17.036Z,2.70
2018-03-26T23:20:44.571Z,2.70
2018-03-26T23:23:12.090Z,2.70
2018-03-26T23:25:39.610Z,2.70
2018-03-26T23:28:07.114Z,2.70
2018-03-26T23:30:34.646Z,2.70
2018-03-26T23:33:02.923Z,2.70
2018-03-26T23:35:31.214Z,2.70
2018-03-26T23:37:58.722Z,2.70
2018-03-26T23:40:26.238Z,2.70
2018-03-26T23:42:53.751Z,2.70
2018-03-26T23:45:21.276Z,2.70
2018-03-26T23:47:48.794Z,2.70
2018-03-26T23:50:17.078Z,2.70
2018-03-26T23:52:45.359Z,2.80
2018-03-26T23:55:12.898Z,2.80
2018-03-26T23:57:41.183Z,2.80
